Wichita, KS (67218)

6:43 AM CDT on April 25, 2015 (GMT -0500)
Grandview Heights | | Change Station
CLOSE
Current Station
Personal Weather Station
Location: Wichita, KS
Elevation: 1335 ft
Nearby Weather Stations

Elev 1335 ft 37.66 °N, 97.29 °W | Updated 1 second ago

Partly Cloudy
Partly Cloudy
55.9 °F
Feels Like 55.9 °F
N
0.0
Wind Variable Wind from West
Gusts 0.0 mph

Today
High -- | Low -- °F
--% Chance of Precip.
Yesterday
High -- | Low -- °F
Precip. -- in
6:41 AM 8:13 PM
Waxing Crescent, 45% visible
Pressure 29.45 in
Visibility 10.0 miles
Clouds Few 16000 ft
Dew Point 56 °F
Humidity 99%
Rainfall 0.00 in
Snow Depth Not available.
UV 0.0 out of 12
Pollen 10.30 out of 12
Air Quality Not available.
Flu Activity Sporadic
METAR KIAB 251058Z AUTO 26005KT 10SM FEW160 13/11 A2947 RMK AO2 SLP973 T01310111

More Conditions Fewer Conditions

Pressure 29.45 in
Visibility 10.0 miles
Clouds Few 16000 ft
Dew Point 56 °F
Humidity 99%
Rainfall 0.00 in
Snow Depth Not available.
UV 0.0 out of 12
Pollen 10.30 out of 12
Air Quality Not available.
Flu Activity Sporadic
METAR KIAB 251058Z AUTO 26005KT 10SM FEW160 13/11 A2947 RMK AO2 SLP973 T01310111

More Conditions Fewer Conditions

10-Day Weather Forecast

Almanac

Astronomy

Apr. 25, 2015 Rise Set
Actual Time
Civil Twilight
Nautical Twilight
Astronomical Twilight
Moon
Length of Visible Light
Length of Day
Tomorrow will be .
, % of the Moon is Illuminated

Today's Extremes

State Highs State Lows

Community

WunderPhotos

Upload Photos

1,816,639 photos uploaded!

WunderBlogs® & News

Nearby

Air Quality

  Air Quality AQ Index Pollutant
Not available.

Snow Depth

Station Depth Elevation

Earthquake Activity

City Distance Mag. Time & Date
Minimum magnitude displayed is 2.5.

Coastal Water Temperatures

Place Temperature

Stations

Nearby Weather Stations

Station Location Temp. Windchill Dew Point Humidity Wind Precip. Elev Updated Type